createdAt,value
2018-04-01T00:05:54.000Z,19.64
2018-04-01T00:15:54.000Z,19.6
2018-04-01T00:25:57.000Z,19.55
2018-04-01T00:35:54.000Z,19.5
2018-04-01T00:45:54.000Z,19.44
2018-04-01T00:55:54.000Z,19.4
2018-04-01T01:05:54.000Z,19.35
2018-04-01T01:15:54.000Z,19.33
2018-04-01T01:25:54.000Z,19.28
2018-04-01T01:35:54.000Z,19.24
2018-04-01T01:45:54.000Z,19.2
2018-04-01T01:55:54.000Z,19.16
2018-04-01T02:05:54.000Z,19.13
2018-04-01T02:15:54.000Z,19.08
2018-04-01T02:25:54.000Z,19.06
2018-04-01T02:35:54.000Z,19.03
2018-04-01T02:45:54.000Z,18.98
2018-04-01T02:55:54.000Z,18.95
2018-04-01T03:05:54.000Z,18.91
2018-04-01T03:15:54.000Z,18.89
2018-04-01T03:25:54.000Z,18.85
2018-04-01T03:35:54.000Z,18.82
2018-04-01T03:45:54.000Z,18.84
2018-04-01T03:55:54.000Z,18.93
2018-04-01T04:05:54.000Z,19.06
2018-04-01T04:15:54.000Z,19.16
2018-04-01T04:25:54.000Z,19.22
2018-04-01T04:35:54.000Z,19.31
2018-04-01T04:45:54.000Z,19.38
2018-04-01T04:55:54.000Z,19.46
2018-04-01T05:05:54.000Z,19.57
2018-04-01T05:15:54.000Z,19.63
2018-04-01T05:25:54.000Z,19.72
2018-04-01T05:35:54.000Z,19.76
2018-04-01T05:45:54.000Z,19.84
2018-04-01T05:55:54.000Z,19.93
2018-04-01T06:05:54.000Z,20
2018-04-01T06:15:54.000Z,20.05
2018-04-01T06:25:54.000Z,20.11
2018-04-01T06:35:54.000Z,20.16
2018-04-01T06:45:54.000Z,20.3
2018-04-01T06:55:54.000Z,20.31
2018-04-01T07:05:54.000Z,20.4
2018-04-01T07:15:54.000Z,20.47
2018-04-01T07:25:54.000Z,20.53
2018-04-01T07:35:54.000Z,20.59
2018-04-01T07:45:54.000Z,20.66
2018-04-01T07:55:54.000Z,20.8
2018-04-01T08:05:55.000Z,20.86
2018-04-01T08:15:55.000Z,20.96
2018-04-01T08:25:55.000Z,21.04
2018-04-01T08:35:55.000Z,21.15
2018-04-01T08:45:55.000Z,21.25
2018-04-01T08:55:55.000Z,21.35
2018-04-01T09:05:55.000Z,21.51
2018-04-01T09:15:55.000Z,21.6
2018-04-01T09:25:55.000Z,21.68
2018-04-01T09:35:55.000Z,21.82
2018-04-01T09:45:55.000Z,21.82
2018-04-01T09:55:55.000Z,21.91
2018-04-01T10:05:55.000Z,21.97
2018-04-01T10:15:55.000Z,21.98
2018-04-01T10:25:55.000Z,22.14
2018-04-01T10:35:55.000Z,22.49
2018-04-01T10:45:55.000Z,22.54
2018-04-01T10:55:56.000Z,22.49
2018-04-01T11:05:55.000Z,22.59
2018-04-01T11:15:55.000Z,22.62
2018-04-01T11:25:55.000Z,22.73
2018-04-01T11:35:55.000Z,22.83
2018-04-01T11:45:55.000Z,22.92
2018-04-01T11:55:55.000Z,22.99
2018-04-01T12:05:55.000Z,23.08
2018-04-01T12:15:55.000Z,23.12
2018-04-01T12:25:55.000Z,23.21
2018-04-01T12:35:55.000Z,23.22
2018-04-01T12:45:55.000Z,23.46
2018-04-01T12:55:55.000Z,23.41
2018-04-01T13:05:55.000Z,23.49
2018-04-01T13:15:55.000Z,23.47
2018-04-01T13:25:55.000Z,23.48
2018-04-01T13:35:55.000Z,23.54
2018-04-01T13:45:55.000Z,23.65
2018-04-01T13:55:55.000Z,23.77
2018-04-01T14:05:55.000Z,23.74
2018-04-01T14:15:55.000Z,23.83
2018-04-01T14:25:55.000Z,23.95
2018-04-01T14:35:55.000Z,24
2018-04-01T14:45:55.000Z,24.09
2018-04-01T14:55:55.000Z,24.18
2018-04-01T15:05:56.000Z,24.43
2018-04-01T15:15:55.000Z,23.98
2018-04-01T15:25:55.000Z,24.02
2018-04-01T15:35:55.000Z,24.3
2018-04-01T15:45:55.000Z,24.41
2018-04-01T15:55:55.000Z,24.41
2018-04-01T16:05:55.000Z,24.5
2018-04-01T16:15:55.000Z,24.36
2018-04-01T16:25:56.000Z,24.38
2018-04-01T16:35:56.000Z,24.24
2018-04-01T16:45:56.000Z,24.31
2018-04-01T16:55:56.000Z,24.18
2018-04-01T17:05:56.000Z,24.02
2018-04-01T17:15:57.000Z,24.08
2018-04-01T17:35:57.000Z,23.94
2018-04-01T17:45:56.000Z,24.07
2018-04-01T17:55:56.000Z,24.12
2018-04-01T18:05:56.000Z,24.04
2018-04-01T18:15:56.000Z,24.02
2018-04-01T18:25:56.000Z,24.02
2018-04-01T18:35:56.000Z,24.11
2018-04-01T18:45:56.000Z,23.94
2018-04-01T18:55:56.000Z,23.92
2018-04-01T19:05:56.000Z,24.24
2018-04-01T19:15:56.000Z,25.01
2018-04-01T19:25:57.000Z,25.05
2018-04-01T19:35:56.000Z,25.18
2018-04-01T19:45:56.000Z,25.08
2018-04-01T19:55:56.000Z,25.14
2018-04-01T20:05:56.000Z,25.37
2018-04-01T20:15:56.000Z,25.34
2018-04-01T20:25:56.000Z,25.43
2018-04-01T20:35:56.000Z,25.34
2018-04-01T20:45:56.000Z,25.4
2018-04-01T20:55:56.000Z,25.41
2018-04-01T21:05:56.000Z,25.5
2018-04-01T21:15:56.000Z,25.4
2018-04-01T21:25:56.000Z,25.28
2018-04-01T21:35:56.000Z,25.24
2018-04-01T21:45:56.000Z,25.21
2018-04-01T21:55:56.000Z,25.13
2018-04-01T22:05:56.000Z,25.01
2018-04-01T22:15:56.000Z,24.79
2018-04-01T22:25:56.000Z,24.68
2018-04-01T22:35:56.000Z,24.59
2018-04-01T22:45:56.000Z,24.37
2018-04-01T22:55:56.000Z,24.18
2018-04-01T23:05:56.000Z,24
2018-04-01T23:15:56.000Z,23.97
2018-04-01T23:25:56.000Z,23.89
2018-04-01T23:35:56.000Z,23.73
2018-04-01T23:45:56.000Z,23.7
2018-04-01T23:55:56.000Z,23.63
